HomeShort term forecast

Short term forecast

Graphical weather forecast for the next 48 hours for Montreal:
Short term forecast
This weather forecast is automatically refreshed every 3 hours.

Hourly Experimental Forecast for the next 48 hours

Overall summary: Snow (< 1 cm.) tomorrow morning.

 Date & Hour   Temp   Feel   Baro   Hum   Speed & Bearing   Wind Gust   Precip.%   Precip.   Visibility   Cloud cover   Conditions 
 17/01/2019 - 07:00  -20.3°C  -25.1°C  1031.2 hPa  65%  5.7 km/h   22.7 km/h  0%  --  16.1km  8%  Clear 
 17/01/2019 - 08:00  -19.3°C  -24.9°C  1031.1 hPa  63%  7.1 km/h   22.0 km/h  0%  --  16.1km  5%  Clear 
 17/01/2019 - 09:00  -17.9°C  -24.5°C  1031.5 hPa  61%  9.5 km/h   24.3 km/h  2%  0.06 mm/h  16.1km  1%  Clear 
 17/01/2019 - 10:00  -16.6°C  -23.5°C  1031.6 hPa  60%  11.0 km/h   27.0 km/h  0%  --  16.1km  0%  Clear 
 17/01/2019 - 11:00  -15.7°C  -22.4°C  1031.2 hPa  60%  11.1 km/h   26.0 km/h  2%  0.01 mm/h  16.1km  0%  Clear 
 17/01/2019 - 12:00  -14.6°C  -21.1°C  1030.1 hPa  60%  11.1 km/h   24.4 km/h  2%  0.03 mm/h  16.1km  0%  Clear 
 17/01/2019 - 13:00  -13.6°C  -19.7°C  1029.2 hPa  59%  10.4 km/h   22.4 km/h  2%  0.05 mm/h  16.1km  0%  Clear 
 17/01/2019 - 14:00  -12.9°C  -18.3°C  1028.5 hPa  58%  9.0 km/h   18.9 km/h  0%  --  16.1km  1%  Clear 
 17/01/2019 - 15:00  -12.1°C  -16.7°C  1028.0 hPa  58%  7.3 km/h   15.7 km/h  0%  --  16.1km  2%  Clear 
 17/01/2019 - 16:00  -12.0°C  -15.8°C  1027.4 hPa  58%  6.0 km/h   13.3 km/h  0%  --  16.1km  3%  Clear 
 17/01/2019 - 17:00  -13.2°C  -16.5°C  1027.2 hPa  63%  5.0 km/h   8.3 km/h  0%  --  16.1km  12%  Clear 
 17/01/2019 - 18:00  -12.9°C  -16.4°C  1027.2 hPa  59%  5.3 km/h   5.9 km/h  0%  --  16.1km  27%  Partly Cloudy 
 17/01/2019 - 19:00  -13.4°C  -17.3°C  1027.1 hPa  59%  5.8 km/h   7.5 km/h  1%  0.04 mm/h  16.1km  38%  Partly Cloudy 
 17/01/2019 - 20:00  -14.9°C  -19.2°C  1026.2 hPa  61%  6.1 km/h   6.3 km/h  0%  --  16.1km  42%  Partly Cloudy 
 17/01/2019 - 21:00  -15.0°C  -20.2°C  1025.0 hPa  62%  7.6 km/h   9.2 km/h  0%  --  16.1km  46%  Partly Cloudy 
 17/01/2019 - 22:00  -14.8°C  -20.5°C  1023.8 hPa  62%  8.8 km/h   11.6 km/h  0%  --  16.1km  52%  Partly Cloudy 
 17/01/2019 - 23:00  -14.2°C  -20.1°C  1022.7 hPa  61%  9.6 km/h   13.0 km/h  0%  --  16.1km  65%  Mostly Cloudy 
 18/01/2019 - 00:00  -13.4°C  -19.3°C  1021.6 hPa  62%  10.0 km/h   13.8 km/h  0%  --  16.1km  84%  Mostly Cloudy 
 18/01/2019 - 01:00  -12.6°C  -18.4°C  1020.6 hPa  62%  10.1 km/h   13.8 km/h  0%  --  16.1km  98%  Overcast 
 18/01/2019 - 02:00  -13.0°C  -18.8°C  1019.6 hPa  69%  9.8 km/h   13.0 km/h  1%  0.03 mm/h  16.1km  100%  Overcast 
 18/01/2019 - 03:00  -12.2°C  -17.6°C  1018.8 hPa  69%  9.2 km/h   11.6 km/h  4%  0.08 mm/h  10.9km  100%  Overcast 
 18/01/2019 - 04:00  -11.5°C  -16.5°C  1018.0 hPa  70%  8.6 km/h   10.5 km/h  6%  0.13 mm/h  6.4km  100%  Possible Light Snow 
 18/01/2019 - 05:00  -10.9°C  -15.5°C  1017.2 hPa  71%  7.9 km/h   10.2 km/h  7%  0.15 mm/h  4.3km  100%  Possible Light Snow 
 18/01/2019 - 06:00  -9.3°C  -13.3°C  1016.5 hPa  68%  7.2 km/h   10.2 km/h  7%  0.24 mm/h  2.1km  100%  Snow 
 18/01/2019 - 07:00  -8.7°C  -12.3°C  1015.9 hPa  70%  6.7 km/h   10.1 km/h  8%  0.37 mm/h  0.7km  100%  Snow 
 18/01/2019 - 08:00  -7.9°C  -11.4°C  1015.4 hPa  73%  6.5 km/h   9.3 km/h  8%  0.37 mm/h  0.3km  100%  Snow 
 18/01/2019 - 09:00  -6.9°C  -10.3°C  1015.1 hPa  76%  6.6 km/h   8.3 km/h  13%  0.32 mm/h  0.6km  100%  Snow 
 18/01/2019 - 10:00  -6.0°C  -9.2°C  1014.7 hPa  78%  6.8 km/h   8.1 km/h  15%  0.27 mm/h  1.3km  100%  Snow 
 18/01/2019 - 11:00  -5.2°C  -8.4°C  1013.8 hPa  82%  7.0 km/h   8.3 km/h  15%  0.26 mm/h  2.1km  100%  Possible Light Snow 
 18/01/2019 - 12:00  -3.9°C  -7.1°C  1012.7 hPa  83%  7.4 km/h   9.4 km/h  14%  0.24 mm/h  3.1km  100%  Possible Light Snow 
 18/01/2019 - 13:00  -3.0°C  -6.4°C  1012.2 hPa  82%  8.4 km/h   12.8 km/h  9%  0.22 mm/h  5.6km  100%  Possible Light Snow 
 18/01/2019 - 14:00  -2.8°C  -6.9°C  1012.3 hPa  80%  11.1 km/h   21.0 km/h  7%  0.16 mm/h  11.5km  91%  Mostly Cloudy 
 18/01/2019 - 15:00  -3.1°C  -8.1°C  1012.8 hPa  78%  14.6 km/h   31.7 km/h  6%  0.10 mm/h  16.1km  78%  Mostly Cloudy 
 18/01/2019 - 16:00  -4.1°C  -9.9°C  1013.7 hPa  78%  17.2 km/h   39.9 km/h  4%  0.06 mm/h  16.1km  64%  Mostly Cloudy 
 18/01/2019 - 17:00  -5.7°C  -12.1°C  1015.3 hPa  76%  18.5 km/h   43.5 km/h  3%  0.03 mm/h  16.1km  49%  Partly Cloudy 
 18/01/2019 - 18:00  -7.4°C  -14.4°C  1017.2 hPa  73%  19.2 km/h   44.5 km/h  2%  0.01 mm/h  16.1km  33%  Partly Cloudy 
 18/01/2019 - 19:00  -9.1°C  -16.6°C  1019.2 hPa  71%  19.5 km/h   43.8 km/h  0%  --  16.1km  20%  Clear 
 18/01/2019 - 20:00  -10.5°C  -18.1°C  1021.0 hPa  68%  18.7 km/h   41.5 km/h  0%  --  16.1km  11%  Clear 
 18/01/2019 - 21:00  -11.9°C  -19.5°C  1022.7 hPa  66%  17.0 km/h   37.6 km/h  0%  --  16.1km  4%  Clear 
 18/01/2019 - 22:00  -13.2°C  -20.7°C  1024.3 hPa  64%  15.4 km/h   32.6 km/h  0%  --  16.1km  0%  Clear 
 18/01/2019 - 23:00  -14.3°C  -21.8°C  1025.6 hPa  61%  14.1 km/h   25.8 km/h  0%  --  16.1km  0%  Clear 
 19/01/2019 - 00:00  -15.4°C  -22.8°C  1026.7 hPa  59%  13.0 km/h   17.9 km/h  0%  --  16.1km  1%  Clear 
 19/01/2019 - 01:00  -16.4°C  -23.7°C  1027.6 hPa  57%  11.9 km/h   12.0 km/h  0%  --  16.1km  2%  Clear 
 19/01/2019 - 02:00  -17.3°C  -24.3°C  1028.4 hPa  56%  10.7 km/h   10.8 km/h  0%  --  16.1km  5%  Clear 
 19/01/2019 - 03:00  -18.0°C  -24.7°C  1029.0 hPa  56%  9.6 km/h   9.6 km/h  0%  --  16.1km  8%  Clear 
 19/01/2019 - 04:00  -18.7°C  -25.0°C  1029.7 hPa  55%  8.6 km/h   8.7 km/h  0%  --  16.1km  9%  Clear 
 19/01/2019 - 05:00  -19.7°C  -25.7°C  1030.6 hPa  55%  7.8 km/h   8.4 km/h  0%  --  16.1km  6%  Clear 
 19/01/2019 - 06:00  -20.8°C  -26.7°C  1031.5 hPa  56%  7.3 km/h   9.8 km/h  0%  --  16.1km  3%  Clear 
Test

 

Past weather and reports

Past weatherFind in this section the past weather conditions, weather archive, graphics, reports and statistics.

Current conditions

Current weather condition for MontrealAll you need to know about the current weather conditions for Montreal. Weather data is updated every 10 minutes.

Weather forecast

Current Montreal weatherSince 2004, celinium.com website has provided accurate weather forecast for Montreal's island.